sensor_id;sensor_type;location;lat;lon;timestamp;pressure;altitude;pressure_sealevel;temperature;humidity
28167;BME280;15455;53.376;-6.262;2022-09-02T00:00:15;101560.81;;;14.52;100.00
28167;BME280;15455;53.376;-6.262;2022-09-02T00:03:02;101561.69;;;14.51;100.00
28167;BME280;15455;53.376;-6.262;2022-09-02T00:05:49;101554.72;;;14.49;100.00
28167;BME280;15455;53.376;-6.262;2022-09-02T00:08:36;101549.47;;;14.50;100.00
28167;BME280;15455;53.376;-6.262;2022-09-02T00:11:25;101556.41;;;14.54;100.00
28167;BME280;15455;53.376;-6.262;2022-09-02T00:14:30;101552.06;;;14.55;100.00
28167;BME280;15455;53.376;-6.262;2022-09-02T00:17:16;101540.69;;;14.50;100.00
28167;BME280;15455;53.376;-6.262;2022-09-02T00:20:02;101539.88;;;14.43;100.00
28167;BME280;15455;53.376;-6.262;2022-09-02T00:22:56;101523.31;;;14.29;100.00
28167;BME280;15455;53.376;-6.262;2022-09-02T00:25:43;101528.59;;;14.21;100.00
28167;BME280;15455;53.376;-6.262;2022-09-02T00:28:29;101526.00;;;14.16;100.00
28167;BME280;15455;53.376;-6.262;2022-09-02T00:31:15;101526.84;;;14.17;100.00
28167;BME280;15455;53.376;-6.262;2022-09-02T00:34:02;101520.75;;;14.16;100.00
28167;BME280;15455;53.376;-6.262;2022-09-02T00:36:48;101523.34;;;14.21;100.00
28167;BME280;15455;53.376;-6.262;2022-09-02T00:39:34;101519.84;;;14.22;100.00
28167;BME280;15455;53.376;-6.262;2022-09-02T00:42:21;101517.22;;;14.23;100.00
28167;BME280;15455;53.376;-6.262;2022-09-02T00:45:07;101511.06;;;14.28;100.00
28167;BME280;15455;53.376;-6.262;2022-09-02T00:47:53;101517.16;;;14.33;100.00
28167;BME280;15455;53.376;-6.262;2022-09-02T00:50:39;101512.78;;;14.35;100.00
28167;BME280;15455;53.376;-6.262;2022-09-02T00:53:24;101508.38;;;14.37;100.00
28167;BME280;15455;53.376;-6.262;2022-09-02T00:56:13;101505.75;;;14.35;100.00
28167;BME280;15455;53.376;-6.262;2022-09-02T00:59:01;101501.41;;;14.37;100.00
28167;BME280;15455;53.376;-6.262;2022-09-02T01:01:46;101503.13;;;14.38;100.00
28167;BME280;15455;53.376;-6.262;2022-09-02T01:04:33;101497.88;;;14.37;100.00
28167;BME280;15455;53.376;-6.262;2022-09-02T01:07:19;101492.63;;;14.37;100.00
28167;BME280;15455;53.376;-6.262;2022-09-02T01:10:10;101482.13;;;14.37;100.00
28167;BME280;15455;53.376;-6.262;2022-09-02T01:12:58;101483.88;;;14.38;100.00
28167;BME280;15455;53.376;-6.262;2022-09-02T01:15:48;101483.88;;;14.38;100.00
28167;BME280;15455;53.376;-6.262;2022-09-02T01:18:36;101477.75;;;14.39;100.00
28167;BME280;15455;53.376;-6.262;2022-09-02T01:21:23;101474.22;;;14.40;100.00
28167;BME280;15455;53.376;-6.262;2022-09-02T01:24:08;101467.25;;;14.37;100.00
28167;BME280;15455;53.376;-6.262;2022-09-02T01:26:55;101463.72;;;14.37;100.00
28167;BME280;15455;53.376;-6.262;2022-09-02T01:29:42;101454.13;;;14.36;100.00
28167;BME280;15455;53.376;-6.262;2022-09-02T01:32:28;101455.81;;;14.40;100.00
28167;BME280;15455;53.376;-6.262;2022-09-02T01:35:15;101454.13;;;14.39;100.00
28167;BME280;15455;53.376;-6.262;2022-09-02T01:38:01;101446.25;;;14.37;100.00
28167;BME280;15455;53.376;-6.262;2022-09-02T01:40:47;101448.88;;;14.36;100.00
28167;BME280;15455;53.376;-6.262;2022-09-02T01:43:33;101448.88;;;14.36;100.00
28167;BME280;15455;53.376;-6.262;2022-09-02T01:46:18;101454.13;;;14.36;100.00
28167;BME280;15455;53.376;-6.262;2022-09-02T01:49:04;101438.41;;;14.34;100.00
28167;BME280;15455;53.376;-6.262;2022-09-02T01:51:53;101437.47;;;14.35;100.00
28167;BME280;15455;53.376;-6.262;2022-09-02T01:54:40;101442.72;;;14.37;100.00
28167;BME280;15455;53.376;-6.262;2022-09-02T01:57:26;101442.72;;;14.37;100.00
28167;BME280;15455;53.376;-6.262;2022-09-02T02:00:13;101439.22;;;14.39;100.00
28167;BME280;15455;53.376;-6.262;2022-09-02T02:02:59;101447.06;;;14.44;100.00
28167;BME280;15455;53.376;-6.262;2022-09-02T02:05:47;101447.06;;;14.44;100.00
28167;BME280;15455;53.376;-6.262;2022-09-02T02:08:34;101440.94;;;14.44;100.00
28167;BME280;15455;53.376;-6.262;2022-09-02T02:11:22;101438.31;;;14.42;100.00
28167;BME280;15455;53.376;-6.262;2022-09-02T02:14:13;101429.59;;;14.41;100.00
28167;BME280;15455;53.376;-6.262;2022-09-02T02:17:04;101433.09;;;14.40;100.00
28167;BME280;15455;53.376;-6.262;2022-09-02T02:19:50;101428.72;;;14.39;100.00
28167;BME280;15455;53.376;-6.262;2022-09-02T02:22:37;101428.69;;;14.41;100.00
28167;BME280;15455;53.376;-6.262;2022-09-02T02:25:23;101422.59;;;14.40;100.00
28167;BME280;15455;53.376;-6.262;2022-09-02T02:28:11;101426.94;;;14.40;100.00
28167;BME280;15455;53.376;-6.262;2022-09-02T02:30:57;101421.69;;;14.38;100.00
28167;BME280;15455;53.376;-6.262;2022-09-02T02:33:44;101410.34;;;14.38;100.00
28167;BME280;15455;53.376;-6.262;2022-09-02T02:36:30;101419.97;;;14.39;100.00
28167;BME280;15455;53.376;-6.262;2022-09-02T02:39:16;101412.09;;;14.37;100.00
28167;BME280;15455;53.376;-6.262;2022-09-02T02:42:03;101411.19;;;14.38;100.00
28167;BME280;15455;53.376;-6.262;2022-09-02T02:44:49;101407.72;;;14.36;100.00
28167;BME280;15455;53.376;-6.262;2022-09-02T02:47:39;101401.63;;;14.36;100.00
28167;BME280;15455;53.376;-6.262;2022-09-02T02:50:26;101401.63;;;14.31;100.00
28167;BME280;15455;53.376;-6.262;2022-09-02T02:53:12;101397.28;;;14.29;100.00
28167;BME280;15455;53.376;-6.262;2022-09-02T02:55:59;101386.81;;;14.22;100.00
28167;BME280;15455;53.376;-6.262;2022-09-02T02:58:45;101390.34;;;14.17;100.00
28167;BME280;15455;53.376;-6.262;2022-09-02T03:01:31;101389.53;;;14.12;100.00
28167;BME280;15455;53.376;-6.262;2022-09-02T03:04:17;101387.75;;;14.12;100.00
28167;BME280;15455;53.376;-6.262;2022-09-02T03:07:03;101384.31;;;14.07;100.00
28167;BME280;15455;53.376;-6.262;2022-09-02T03:09:50;101386.06;;;14.05;100.00
28167;BME280;15455;53.376;-6.262;2022-09-02T03:12:37;101379.09;;;13.99;100.00
28167;BME280;15455;53.376;-6.262;2022-09-02T03:15:24;101378.25;;;13.96;100.00
28167;BME280;15455;53.376;-6.262;2022-09-02T03:18:11;101373.94;;;13.88;100.00
28167;BME280;15455;53.376;-6.262;2022-09-02T03:20:56;101372.19;;;13.87;100.00
28167;BME280;15455;53.376;-6.262;2022-09-02T03:23:43;101369.56;;;13.84;100.00
28167;BME280;15455;53.376;-6.262;2022-09-02T03:26:29;101373.06;;;13.83;100.00
28167;BME280;15455;53.376;-6.262;2022-09-02T03:29:16;101361.69;;;13.86;100.00
28167;BME280;15455;53.376;-6.262;2022-09-02T03:32:02;101362.56;;;13.86;100.00
28167;BME280;15455;53.376;-6.262;2022-09-02T03:34:52;101363.41;;;13.92;100.00
28167;BME280;15455;53.376;-6.262;2022-09-02T03:37:38;101351.22;;;13.83;100.00
28167;BME280;15455;53.376;-6.262;2022-09-02T03:40:26;101351.19;;;13.86;100.00
28167;BME280;15455;53.376;-6.262;2022-09-02T03:43:12;101338.97;;;13.83;100.00
28167;BME280;15455;53.376;-6.262;2022-09-02T03:45:59;101341.56;;;13.85;100.00
28167;BME280;15455;53.376;-6.262;2022-09-02T03:48:45;101340.69;;;13.87;100.00
28167;BME280;15455;53.376;-6.262;2022-09-02T03:51:31;101345.94;;;13.87;100.00
28167;BME280;15455;53.376;-6.262;2022-09-02T03:54:18;101338.09;;;13.86;100.00
28167;BME280;15455;53.376;-6.262;2022-09-02T03:57:04;101338.97;;;13.83;100.00
28167;BME280;15455;53.376;-6.262;2022-09-02T03:59:50;101333.72;;;13.83;100.00
28167;BME280;15455;53.376;-6.262;2022-09-02T04:02:36;101329.38;;;13.82;100.00
28167;BME280;15455;53.376;-6.262;2022-09-02T04:05:23;101321.50;;;13.82;100.00
28167;BME280;15455;53.376;-6.262;2022-09-02T04:08:12;101324.16;;;13.76;100.00
28167;BME280;15455;53.376;-6.262;2022-09-02T04:10:57;101334.63;;;13.76;100.00
28167;BME280;15455;53.376;-6.262;2022-09-02T04:13:44;101326.81;;;13.70;100.00
28167;BME280;15455;53.376;-6.262;2022-09-02T04:16:34;101318.09;;;13.65;100.00
28167;BME280;15455;53.376;-6.262;2022-09-02T04:19:23;101312.84;;;13.65;100.00
28167;BME280;15455;53.376;-6.262;2022-09-02T04:22:09;101325.09;;;13.66;100.00
28167;BME280;15455;53.376;-6.262;2022-09-02T04:24:56;101324.22;;;13.65;100.00
28167;BME280;15455;53.376;-6.262;2022-09-02T04:27:41;101311.97;;;13.64;100.00
28167;BME280;15455;53.376;-6.262;2022-09-02T04:30:27;101308.53;;;13.61;100.00
28167;BME280;15455;53.376;-6.262;2022-09-02T04:33:13;101312.00;;;13.61;100.00
28167;BME280;15455;53.376;-6.262;2022-09-02T04:36:03;101314.66;;;13.57;100.00
28167;BME280;15455;53.376;-6.262;2022-09-02T04:38:51;101314.69;;;13.53;100.00
28167;BME280;15455;53.376;-6.262;2022-09-02T04:41:40;101305.06;;;13.52;100.00
28167;BME280;15455;53.376;-6.262;2022-09-02T04:44:29;101303.31;;;13.53;100.00
28167;BME280;15455;53.376;-6.262;2022-09-02T04:47:15;101303.31;;;13.51;100.00
28167;BME280;15455;53.376;-6.262;2022-09-02T04:50:02;101297.19;;;13.52;100.00
28167;BME280;15455;53.376;-6.262;2022-09-02T04:52:51;101299.81;;;13.54;100.00
28167;BME280;15455;53.376;-6.262;2022-09-02T04:55:38;101299.78;;;13.57;100.00
28167;BME280;15455;53.376;-6.262;2022-09-02T04:58:26;101304.16;;;13.58;100.00
28167;BME280;15455;53.376;-6.262;2022-09-02T05:01:17;101295.41;;;13.61;100.00
28167;BME280;15455;53.376;-6.262;2022-09-02T05:04:05;101296.28;;;13.60;100.00
28167;BME280;15455;53.376;-6.262;2022-09-02T05:06:59;101287.56;;;13.59;100.00
28167;BME280;15455;53.376;-6.262;2022-09-02T05:09:58;101291.06;;;13.58;100.00
28167;BME280;15455;53.376;-6.262;2022-09-02T05:12:48;101287.53;;;13.56;100.00
28167;BME280;15455;53.376;-6.262;2022-09-02T05:15:38;101277.97;;;13.49;100.00
28167;BME280;15455;53.376;-6.262;2022-09-02T05:18:26;101279.78;;;13.44;100.00
28167;BME280;15455;53.376;-6.262;2022-09-02T05:21:12;101278.03;;;13.40;100.00
28167;BME280;15455;53.376;-6.262;2022-09-02T05:23:59;101268.44;;;13.31;100.00
28167;BME280;15455;53.376;-6.262;2022-09-02T05:26:45;101285.94;;;13.24;100.00
28167;BME280;15455;53.376;-6.262;2022-09-02T05:29:31;101282.53;;;13.14;100.00
28167;BME280;15455;53.376;-6.262;2022-09-02T05:32:17;101275.56;;;13.07;100.00
28167;BME280;15455;53.376;-6.262;2022-09-02T05:35:05;101279.06;;;13.03;100.00
28167;BME280;15455;53.376;-6.262;2022-09-02T05:37:52;101274.72;;;12.99;100.00
28167;BME280;15455;53.376;-6.262;2022-09-02T05:40:46;101279.06;;;12.95;100.00
28167;BME280;15455;53.376;-6.262;2022-09-02T05:43:34;101276.50;;;12.89;100.00
28167;BME280;15455;53.376;-6.262;2022-09-02T05:46:22;101270.38;;;12.82;100.00
28167;BME280;15455;53.376;-6.262;2022-09-02T05:49:10;101273.91;;;12.78;100.00
28167;BME280;15455;53.376;-6.262;2022-09-02T05:52:08;101279.16;;;12.80;100.00
28167;BME280;15455;53.376;-6.262;2022-09-02T05:55:04;101280.00;;;12.80;100.00
28167;BME280;15455;53.376;-6.262;2022-09-02T05:57:55;101275.63;;;12.84;100.00
28167;BME280;15455;53.376;-6.262;2022-09-02T06:00:41;101276.50;;;12.88;100.00
28167;BME280;15455;53.376;-6.262;2022-09-02T06:03:27;101280.84;;;12.92;100.00
28167;BME280;15455;53.376;-6.262;2022-09-02T06:06:13;101278.22;;;12.95;100.00
28167;BME280;15455;53.376;-6.262;2022-09-02T06:08:59;101272.97;;;12.98;100.00
28167;BME280;15455;53.376;-6.262;2022-09-02T06:11:46;101272.09;;;12.99;100.00
28167;BME280;15455;53.376;-6.262;2022-09-02T06:14:38;101273.81;;;13.03;100.00
28167;BME280;15455;53.376;-6.262;2022-09-02T06:17:24;101272.91;;;13.06;100.00
28167;BME280;15455;53.376;-6.262;2022-09-02T06:20:14;101265.94;;;13.08;100.00
28167;BME280;15455;53.376;-6.262;2022-09-02T06:23:00;101268.56;;;13.08;100.00
28167;BME280;15455;53.376;-6.262;2022-09-02T06:25:47;101267.69;;;13.10;100.00
28167;BME280;15455;53.376;-6.262;2022-09-02T06:28:35;101265.91;;;13.14;100.00
28167;BME280;15455;53.376;-6.262;2022-09-02T06:31:22;101272.88;;;13.16;100.00
28167;BME280;15455;53.376;-6.262;2022-09-02T06:34:09;101264.16;;;13.16;100.00
28167;BME280;15455;53.376;-6.262;2022-09-02T06:36:59;101260.66;;;13.15;100.00
28167;BME280;15455;53.376;-6.262;2022-09-02T06:39:45;101263.25;;;13.17;100.00
28167;BME280;15455;53.376;-6.262;2022-09-02T06:42:39;101254.53;;;13.18;100.00
28167;BME280;15455;53.376;-6.262;2022-09-02T06:45:42;101252.75;;;13.20;100.00
28167;BME280;15455;53.376;-6.262;2022-09-02T06:48:28;101251.00;;;13.22;100.00
28167;BME280;15455;53.376;-6.262;2022-09-02T06:51:38;101240.53;;;13.24;100.00
28167;BME280;15455;53.376;-6.262;2022-09-02T06:54:24;101241.38;;;13.26;100.00
28167;BME280;15455;53.376;-6.262;2022-09-02T06:57:21;101242.25;;;13.28;100.00
28167;BME280;15455;53.376;-6.262;2022-09-02T07:00:16;101248.34;;;13.30;100.00
28167;BME280;15455;53.376;-6.262;2022-09-02T07:03:03;101243.06;;;13.33;100.00
28167;BME280;15455;53.376;-6.262;2022-09-02T07:06:09;101250.06;;;13.38;100.00
28167;BME280;15455;53.376;-6.262;2022-09-02T07:09:00;101247.44;;;13.45;100.00
28167;BME280;15455;53.376;-6.262;2022-09-02T07:11:49;101236.91;;;13.51;100.00
28167;BME280;15455;53.376;-6.262;2022-09-02T07:14:39;101228.94;;;13.62;100.00
28167;BME280;15455;53.376;-6.262;2022-09-02T07:17:27;101223.63;;;13.71;100.00
28167;BME280;15455;53.376;-6.262;2022-09-02T07:20:18;101214.81;;;13.81;100.00
28167;BME280;15455;53.376;-6.262;2022-09-02T07:23:12;101211.19;;;13.93;100.00
28167;BME280;15455;53.376;-6.262;2022-09-02T07:25:58;101209.38;;;14.01;100.00
28167;BME280;15455;53.376;-6.262;2022-09-02T07:28:45;101201.34;;;14.15;100.00
28167;BME280;15455;53.376;-6.262;2022-09-02T07:31:31;101209.13;;;14.28;100.00
28167;BME280;15455;53.376;-6.262;2022-09-02T07:34:18;101201.09;;;14.40;100.00
28167;BME280;15455;53.376;-6.262;2022-09-02T07:37:06;101199.22;;;14.53;100.00
28167;BME280;15455;53.376;-6.262;2022-09-02T07:39:56;101199.94;;;14.69;100.00
28167;BME280;15455;53.376;-6.262;2022-09-02T07:42:43;101182.28;;;14.80;100.00
28167;BME280;15455;53.376;-6.262;2022-09-02T07:45:30;101176.88;;;14.91;100.00
28167;BME280;15455;53.376;-6.262;2022-09-02T07:48:17;101162.81;;;14.95;100.00
28167;BME280;15455;53.376;-6.262;2022-09-02T07:51:05;101173.22;;;15.03;100.00
28167;BME280;15455;53.376;-6.262;2022-09-02T07:53:51;101171.25;;;15.17;100.00
28167;BME280;15455;53.376;-6.262;2022-09-02T07:56:38;101168.44;;;15.29;100.00
28167;BME280;15455;53.376;-6.262;2022-09-02T07:59:25;101158.75;;;15.33;100.00
28167;BME280;15455;53.376;-6.262;2022-09-02T08:02:14;101163.91;;;15.38;100.00
28167;BME280;15455;53.376;-6.262;2022-09-02T08:05:03;101162.06;;;15.44;100.00
28167;BME280;15455;53.376;-6.262;2022-09-02T08:07:49;101161.19;;;15.45;100.00
28167;BME280;15455;53.376;-6.262;2022-09-02T08:10:36;101165.63;;;15.42;100.00
28167;BME280;15455;53.376;-6.262;2022-09-02T08:13:22;101157.72;;;15.42;100.00
28167;BME280;15455;53.376;-6.262;2022-09-02T08:16:12;101162.09;;;15.43;100.00
28167;BME280;15455;53.376;-6.262;2022-09-02T08:18:57;101161.13;;;15.50;100.00
28167;BME280;15455;53.376;-6.262;2022-09-02T08:21:43;101164.50;;;15.57;100.00
28167;BME280;15455;53.376;-6.262;2022-09-02T08:24:30;101163.50;;;15.64;100.00
28167;BME280;15455;53.376;-6.262;2022-09-02T08:27:17;101159.94;;;15.67;100.00
28167;BME280;15455;53.376;-6.262;2022-09-02T08:30:04;101158.09;;;15.73;100.00
28167;BME280;15455;53.376;-6.262;2022-09-02T08:32:50;101156.31;;;15.74;100.00
28167;BME280;15455;53.376;-6.262;2022-09-02T08:35:37;101167.69;;;15.79;100.00
28167;BME280;15455;53.376;-6.262;2022-09-02T08:38:22;101164.13;;;15.82;100.00
28167;BME280;15455;53.376;-6.262;2022-09-02T08:44:01;101150.91;;;15.85;100.00
28167;BME280;15455;53.376;-6.262;2022-09-02T08:46:51;101155.19;;;15.90;100.00
28167;BME280;15455;53.376;-6.262;2022-09-02T08:49:42;101147.19;;;15.96;100.00
28167;BME280;15455;53.376;-6.262;2022-09-02T08:52:37;101143.47;;;16.07;100.00
28167;BME280;15455;53.376;-6.262;2022-09-02T08:55:31;101137.31;;;16.08;100.00
28167;BME280;15455;53.376;-6.262;2022-09-02T08:58:22;101136.19;;;16.21;100.00
28167;BME280;15455;53.376;-6.262;2022-09-02T09:01:43;101122.81;;;16.30;100.00
28167;BME280;15455;53.376;-6.262;2022-09-02T09:05:03;101119.06;;;16.44;100.00
28167;BME280;15455;53.376;-6.262;2022-09-02T09:13:46;101109.28;;;16.90;100.00
28167;BME280;15455;53.376;-6.262;2022-09-02T09:16:41;101109.00;;;17.02;100.00
28167;BME280;15455;53.376;-6.262;2022-09-02T09:22:36;101125.75;;;17.37;100.00
28167;BME280;15455;53.376;-6.262;2022-09-02T09:25:26;101116.09;;;17.70;100.00
28167;BME280;15455;53.376;-6.262;2022-09-02T09:28:15;101113.88;;;17.88;100.00
28167;BME280;15455;53.376;-6.262;2022-09-02T09:31:01;101115.19;;;18.06;100.00
28167;BME280;15455;53.376;-6.262;2022-09-02T09:34:05;101107.09;;;18.12;100.00
28167;BME280;15455;53.376;-6.262;2022-09-02T09:36:53;101101.09;;;18.07;100.00
28167;BME280;15455;53.376;-6.262;2022-09-02T09:39:38;101086.75;;;18.16;100.00
28167;BME280;15455;53.376;-6.262;2022-09-02T09:42:35;101083.91;;;18.22;100.00
28167;BME280;15455;53.376;-6.262;2022-09-02T09:48:25;101076.97;;;18.49;100.00
28167;BME280;15455;53.376;-6.262;2022-09-02T09:51:14;101064.34;;;18.59;100.00
28167;BME280;15455;53.376;-6.262;2022-09-02T09:54:14;101064.03;;;18.68;100.00
28167;BME280;15455;53.376;-6.262;2022-09-02T09:57:23;101069.22;;;18.71;100.00
28167;BME280;15455;53.376;-6.262;2022-09-02T10:00:29;101064.63;;;18.78;100.00
28167;BME280;15455;53.376;-6.262;2022-09-02T10:03:40;101069.31;;;18.98;100.00
28167;BME280;15455;53.376;-6.262;2022-09-02T10:12:10;101063.28;;;18.93;98.96
28167;BME280;15455;53.376;-6.262;2022-09-02T10:14:56;101058.03;;;18.91;97.85
28167;BME280;15455;53.376;-6.262;2022-09-02T10:18:08;101054.13;;;19.03;98.86
28167;BME280;15455;53.376;-6.262;2022-09-02T10:27:06;101039.63;;;18.88;94.75
28167;BME280;15455;53.376;-6.262;2022-09-02T10:29:58;101032.72;;;18.83;94.41
28167;BME280;15455;53.376;-6.262;2022-09-02T10:36:34;101026.88;;;19.01;94.15
28167;BME280;15455;53.376;-6.262;2022-09-02T10:48:01;101022.78;;;19.18;92.10
28167;BME280;15455;53.376;-6.262;2022-09-02T10:59:51;101006.63;;;19.00;91.41
28167;BME280;15455;53.376;-6.262;2022-09-02T11:05:51;100996.72;;;19.32;88.44
28167;BME280;15455;53.376;-6.262;2022-09-02T11:08:44;100989.78;;;19.28;87.90
28167;BME280;15455;53.376;-6.262;2022-09-02T11:11:40;100991.22;;;19.38;89.14
28167;BME280;15455;53.376;-6.262;2022-09-02T11:14:36;100981.22;;;19.47;86.60
28167;BME280;15455;53.376;-6.262;2022-09-02T11:20:43;100964.88;;;19.59;80.86
28167;BME280;15455;53.376;-6.262;2022-09-02T11:23:42;100963.56;;;19.71;81.46
28167;BME280;15455;53.376;-6.262;2022-09-02T11:27:03;100958.13;;;19.99;82.80
28167;BME280;15455;53.376;-6.262;2022-09-02T11:30:13;100948.97;;;20.52;82.35
28167;BME280;15455;53.376;-6.262;2022-09-02T11:33:18;100946.06;;;21.01;79.23
28167;BME280;15455;53.376;-6.262;2022-09-02T11:36:05;100935.06;;;21.31;72.46
28167;BME280;15455;53.376;-6.262;2022-09-02T11:39:07;100928.13;;;21.47;70.88
28167;BME280;15455;53.376;-6.262;2022-09-02T11:54:40;100910.09;;;21.56;71.52
28167;BME280;15455;53.376;-6.262;2022-09-02T11:57:27;100905.44;;;21.80;67.92
28167;BME280;15455;53.376;-6.262;2022-09-02T12:00:34;100910.56;;;22.02;72.27
28167;BME280;15455;53.376;-6.262;2022-09-02T12:03:24;100899.06;;;22.20;69.44
28167;BME280;15455;53.376;-6.262;2022-09-02T12:06:33;100897.75;;;22.29;70.82
28167;BME280;15455;53.376;-6.262;2022-09-02T12:15:21;100898.44;;;21.96;70.03
28167;BME280;15455;53.376;-6.262;2022-09-02T12:18:27;100900.47;;;21.91;73.51
28167;BME280;15455;53.376;-6.262;2022-09-02T12:21:16;100892.63;;;21.88;74.09
28167;BME280;15455;53.376;-6.262;2022-09-02T12:24:08;100898.97;;;21.85;77.88
28167;BME280;15455;53.376;-6.262;2022-09-02T12:29:41;100892.41;;;21.74;77.78
28167;BME280;15455;53.376;-6.262;2022-09-02T12:38:24;100873.00;;;21.13;79.67
28167;BME280;15455;53.376;-6.262;2022-09-02T12:41:20;100876.44;;;20.96;81.96
28167;BME280;15455;53.376;-6.262;2022-09-02T12:44:21;100873.84;;;20.74;81.99
28167;BME280;15455;53.376;-6.262;2022-09-02T12:47:41;100867.09;;;20.44;82.44
28167;BME280;15455;53.376;-6.262;2022-09-02T12:50:50;100875.31;;;20.16;85.25
28167;BME280;15455;53.376;-6.262;2022-09-02T12:53:45;100870.78;;;19.98;87.04
28167;BME280;15455;53.376;-6.262;2022-09-02T12:56:33;100870.63;;;19.77;89.76
28167;BME280;15455;53.376;-6.262;2022-09-02T13:02:27;100869.00;;;19.51;94.58
28167;BME280;15455;53.376;-6.262;2022-09-02T13:18:10;100854.41;;;18.91;100.00
28167;BME280;15455;53.376;-6.262;2022-09-02T13:21:55;100857.34;;;18.82;100.00
28167;BME280;15455;53.376;-6.262;2022-09-02T13:33:59;100840.97;;;18.19;100.00
28167;BME280;15455;53.376;-6.262;2022-09-02T13:36:48;100839.25;;;18.18;100.00
28167;BME280;15455;53.376;-6.262;2022-09-02T13:39:37;100838.19;;;18.23;100.00
28167;BME280;15455;53.376;-6.262;2022-09-02T13:42:25;100828.13;;;18.35;100.00
28167;BME280;15455;53.376;-6.262;2022-09-02T13:45:22;100839.19;;;18.46;100.00
28167;BME280;15455;53.376;-6.262;2022-09-02T13:48:20;100828.69;;;18.45;100.00
28167;BME280;15455;53.376;-6.262;2022-09-02T13:51:11;100824.56;;;18.36;100.00
28167;BME280;15455;53.376;-6.262;2022-09-02T13:53:58;100822.16;;;18.28;100.00
28167;BME280;15455;53.376;-6.262;2022-09-02T13:57:06;100824.25;;;18.18;100.00
28167;BME280;15455;53.376;-6.262;2022-09-02T13:59:55;100814.09;;;18.06;100.00
28167;BME280;15455;53.376;-6.262;2022-09-02T14:02:54;100806.38;;;18.00;100.00
28167;BME280;15455;53.376;-6.262;2022-09-02T14:05:44;100809.03;;;18.00;100.00
28167;BME280;15455;53.376;-6.262;2022-09-02T14:08:31;100809.72;;;18.05;100.00
28167;BME280;15455;53.376;-6.262;2022-09-02T14:11:17;100803.47;;;18.08;100.00
28167;BME280;15455;53.376;-6.262;2022-09-02T14:14:03;100799.66;;;18.16;100.00
28167;BME280;15455;53.376;-6.262;2022-09-02T14:16:49;100803.03;;;18.21;100.00
28167;BME280;15455;53.376;-6.262;2022-09-02T14:19:35;100808.16;;;18.26;100.00
28167;BME280;15455;53.376;-6.262;2022-09-02T14:22:24;100799.06;;;18.35;100.00
28167;BME280;15455;53.376;-6.262;2022-09-02T14:25:13;100787.41;;;18.40;100.00
28167;BME280;15455;53.376;-6.262;2022-09-02T14:27:59;100782.38;;;18.33;100.00
28167;BME280;15455;53.376;-6.262;2022-09-02T14:31:21;100764.75;;;18.33;100.00
28167;BME280;15455;53.376;-6.262;2022-09-02T14:34:02;100759.25;;;18.39;100.00
28167;BME280;15455;53.376;-6.262;2022-09-02T14:36:53;100752.88;;;18.45;100.00
28167;BME280;15455;53.376;-6.262;2022-09-02T14:42:49;100752.41;;;18.59;100.00
28167;BME280;15455;53.376;-6.262;2022-09-02T14:45:48;100760.84;;;18.69;100.00
28167;BME280;15455;53.376;-6.262;2022-09-02T14:48:37;100752.97;;;18.67;100.00
28167;BME280;15455;53.376;-6.262;2022-09-02T14:51:30;100746.06;;;18.63;100.00
28167;BME280;15455;53.376;-6.262;2022-09-02T14:54:43;100742.81;;;18.56;100.00
28167;BME280;15455;53.376;-6.262;2022-09-02T14:57:33;100734.22;;;18.50;100.00
28167;BME280;15455;53.376;-6.262;2022-09-02T15:00:19;100730.78;;;18.48;100.00
28167;BME280;15455;53.376;-6.262;2022-09-02T15:03:05;100729.47;;;18.60;100.00
28167;BME280;15455;53.376;-6.262;2022-09-02T15:05:51;100710.78;;;18.64;100.00
28167;BME280;15455;53.376;-6.262;2022-09-02T15:08:37;100717.00;;;18.63;100.00
28167;BME280;15455;53.376;-6.262;2022-09-02T15:11:23;100709.34;;;18.55;100.00
28167;BME280;15455;53.376;-6.262;2022-09-02T15:14:09;100705.25;;;18.47;100.00
28167;BME280;15455;53.376;-6.262;2022-09-02T15:16:57;100708.94;;;18.43;100.00
28167;BME280;15455;53.376;-6.262;2022-09-02T15:19:42;100697.34;;;18.47;100.00
28167;BME280;15455;53.376;-6.262;2022-09-02T15:22:28;100691.03;;;18.51;100.00
28167;BME280;15455;53.376;-6.262;2022-09-02T15:25:14;100688.97;;;18.59;100.00
28167;BME280;15455;53.376;-6.262;2022-09-02T15:28:00;100673.91;;;18.61;100.00
28167;BME280;15455;53.376;-6.262;2022-09-02T15:30:45;100672.69;;;18.70;100.00
28167;BME280;15455;53.376;-6.262;2022-09-02T15:33:30;100659.19;;;18.78;100.00
28167;BME280;15455;53.376;-6.262;2022-09-02T15:36:16;100658.22;;;18.80;100.00
28167;BME280;15455;53.376;-6.262;2022-09-02T15:39:03;100654.59;;;18.83;100.00
28167;BME280;15455;53.376;-6.262;2022-09-02T15:41:48;100650.97;;;18.85;100.00
28167;BME280;15455;53.376;-6.262;2022-09-02T15:44:34;100639.56;;;18.83;100.00
28167;BME280;15455;53.376;-6.262;2022-09-02T15:47:19;100640.41;;;18.85;100.00
28167;BME280;15455;53.376;-6.262;2022-09-02T15:50:05;100638.66;;;18.84;100.00
28167;BME280;15455;53.376;-6.262;2022-09-02T15:52:50;100633.56;;;18.80;100.00
28167;BME280;15455;53.376;-6.262;2022-09-02T15:55:36;100634.84;;;18.69;100.00
28167;BME280;15455;53.376;-6.262;2022-09-02T15:58:21;100630.69;;;18.62;100.00
28167;BME280;15455;53.376;-6.262;2022-09-02T16:01:07;100616.91;;;18.54;100.00
28167;BME280;15455;53.376;-6.262;2022-09-02T16:03:54;100614.38;;;18.51;100.00
28167;BME280;15455;53.376;-6.262;2022-09-02T16:06:45;100612.88;;;18.44;100.00
28167;BME280;15455;53.376;-6.262;2022-09-02T16:09:36;100606.00;;;18.39;100.00
28167;BME280;15455;53.376;-6.262;2022-09-02T16:12:22;100599.97;;;18.36;100.00
28167;BME280;15455;53.376;-6.262;2022-09-02T16:15:09;100588.69;;;18.31;100.00